Terminal Aerodrome Forecast
Issued by NWS Sioux Falls, SD

Home | Current Version | Previous Version | Text Only | Print | Product List | Glossary On
Versions: 1 2 3 4 5 6 7 8 9 10 11 12 13 14 15
000
FTUS43 KFSD 102328
TAFHON
TAF
KHON 102328Z 1100/1124 10012KT 1 1/2SM -SN OVC015
      TEMPO 1100/1102 3SM -SN OVC020
     FM110800 09009KT 2SM -SN OVC008
     FM111000 06007KT 4SM -SN OVC015
     FM111200 35009KT P6SM OVC015
     FM111800 31013KT P6SM BKN035
     FM112200 31011KT P6SM SCT100=

USA.gov is the U.S. government's official web portal to all federal, state and local government web resources and services.